createdAt,value
2022-10-16T00:02:17.363Z,53.19
2022-10-16T00:04:50.571Z,53.70
2022-10-16T00:07:19.122Z,53.65
2022-10-16T00:09:53.460Z,53.84
2022-10-16T00:12:21.870Z,53.75
2022-10-16T00:14:53.533Z,53.64
2022-10-16T00:17:25.074Z,53.55
2022-10-16T00:19:54.636Z,53.61
2022-10-16T00:22:25.770Z,53.55
2022-10-16T00:24:56.286Z,53.35
2022-10-16T00:27:24.693Z,53.56
2022-10-16T00:32:32.565Z,53.26
2022-10-16T00:37:49.239Z,51.98
2022-10-16T00:40:41.690Z,51.58
2022-10-16T00:43:39.347Z,51.43
2022-10-16T00:46:15.909Z,51.04
2022-10-16T00:48:48.564Z,51.10
2022-10-16T00:51:32.947Z,50.94
2022-10-16T00:54:05.105Z,50.44
2022-10-16T00:56:38.870Z,50.64
2022-10-16T00:59:15.826Z,50.77
2022-10-16T01:01:45.795Z,50.67
2022-10-16T01:04:15.817Z,50.62
2022-10-16T01:06:58.488Z,50.42
2022-10-16T01:09:37.878Z,50.35
2022-10-16T01:12:17.583Z,49.70
2022-10-16T01:14:54.384Z,49.90
2022-10-16T01:17:38.594Z,49.76
2022-10-16T01:20:16.720Z,49.59
2022-10-16T01:23:10.551Z,49.65
2022-10-16T01:26:13.718Z,49.60
2022-10-16T01:32:26.731Z,48.76
2022-10-16T01:35:11.734Z,48.50
2022-10-16T01:37:50.012Z,48.65
2022-10-16T01:43:52.375Z,48.12
2022-10-16T01:46:57.493Z,47.71
2022-10-16T01:49:34.811Z,47.27
2022-10-16T01:52:12.196Z,47.27
2022-10-16T01:54:48.261Z,47.62
2022-10-16T02:00:21.425Z,47.69
2022-10-16T02:02:57.940Z,47.67
2022-10-16T02:05:55.775Z,48.09
2022-10-16T02:08:36.206Z,48.00
2022-10-16T02:14:20.609Z,48.83
2022-10-16T02:17:02.635Z,49.15
2022-10-16T02:22:10.524Z,50.12
2022-10-16T02:24:50.198Z,50.81
2022-10-16T02:27:29.350Z,50.60
2022-10-16T02:30:17.826Z,50.79
2022-10-16T02:32:55.474Z,50.88
2022-10-16T02:35:28.347Z,51.32
2022-10-16T02:38:01.541Z,51.64
2022-10-16T02:40:30.920Z,51.79
2022-10-16T02:42:59.303Z,52.08
2022-10-16T02:45:28.800Z,52.38
2022-10-16T02:47:57.181Z,52.53
2022-10-16T02:50:26.830Z,52.28
2022-10-16T02:52:55.245Z,52.40
2022-10-16T02:55:25.377Z,52.49
2022-10-16T02:58:02.933Z,53.14
2022-10-16T03:00:31.414Z,52.91
2022-10-16T03:02:59.969Z,53.17
2022-10-16T03:05:31.083Z,53.04
2022-10-16T03:08:01.975Z,52.27
2022-10-16T03:10:40.453Z,51.95
2022-10-16T03:13:24.729Z,51.81
2022-10-16T03:15:57.567Z,51.85
2022-10-16T03:18:25.845Z,51.92
2022-10-16T03:20:57.288Z,52.08
2022-10-16T03:23:31.820Z,52.11
2022-10-16T03:26:04.528Z,52.56
2022-10-16T03:28:41.365Z,52.71
2022-10-16T03:31:15.288Z,53.17
2022-10-16T03:33:45.877Z,53.25
2022-10-16T03:36:22.083Z,53.20
2022-10-16T03:38:50.812Z,53.34
2022-10-16T03:41:24.575Z,53.11
2022-10-16T03:43:53.058Z,52.74
2022-10-16T03:46:24.666Z,52.41
2022-10-16T03:48:53.772Z,51.78
2022-10-16T03:51:35.100Z,51.87
2022-10-16T03:54:03.472Z,51.70
2022-10-16T03:56:44.031Z,51.62
2022-10-16T03:59:30.747Z,51.24
2022-10-16T04:02:25.438Z,51.15
2022-10-16T04:05:02.715Z,50.96
2022-10-16T04:07:38.294Z,50.51
2022-10-16T04:10:08.095Z,50.44
2022-10-16T04:12:48.177Z,50.92
2022-10-16T04:15:17.038Z,52.18
2022-10-16T04:17:45.456Z,53.87
2022-10-16T04:20:13.736Z,54.55
2022-10-16T04:22:45.028Z,55.32
2022-10-16T04:25:14.186Z,55.90
2022-10-16T04:27:46.130Z,56.14
2022-10-16T04:30:15.282Z,56.47
2022-10-16T04:32:44.788Z,57.01
2022-10-16T05:14:23.184Z,57.59
2022-10-16T05:16:52.208Z,57.46
2022-10-16T05:19:29.120Z,57.50
2022-10-16T05:21:58.983Z,57.40
2022-10-16T05:24:36.437Z,57.47
2022-10-16T05:27:09.022Z,57.54
2022-10-16T05:29:39.043Z,57.34
2022-10-16T05:32:07.552Z,57.70
2022-10-16T05:34:36.111Z,57.85
2022-10-16T05:37:04.858Z,57.51
2022-10-16T05:39:33.394Z,57.91
2022-10-16T05:42:01.983Z,57.81
2022-10-16T05:44:30.492Z,57.76
2022-10-16T05:47:00.742Z,57.79
2022-10-16T05:49:30.265Z,57.49
2022-10-16T05:52:01.081Z,57.65
2022-10-16T05:54:29.587Z,57.47
2022-10-16T05:56:58.108Z,57.67
2022-10-16T05:59:27.309Z,57.41
2022-10-16T06:01:55.893Z,57.74
2022-10-16T06:04:25.725Z,57.94
2022-10-16T06:06:56.460Z,57.95
2022-10-16T06:09:24.874Z,57.82
2022-10-16T06:11:53.731Z,58.00
2022-10-16T06:14:22.260Z,58.12
2022-10-16T06:16:51.015Z,58.14
2022-10-16T06:19:19.865Z,58.28
2022-10-16T06:21:50.947Z,58.31
2022-10-16T06:30:54.734Z,58.42
2022-10-16T07:04:56.532Z,58.61
2022-10-16T07:07:47.472Z,58.45
2022-10-16T07:10:34.260Z,58.45
2022-10-16T07:13:03.455Z,58.52
2022-10-16T07:33:31.708Z,58.84
2022-10-16T07:36:04.392Z,58.97
2022-10-16T07:38:33.270Z,59.10
2022-10-16T07:54:34.864Z,58.88
2022-10-16T07:57:03.243Z,59.05
2022-10-16T07:59:32.559Z,59.27
2022-10-16T08:02:03.886Z,59.21
2022-10-16T08:04:32.572Z,59.50
2022-10-16T08:07:00.753Z,59.88
2022-10-16T08:09:29.022Z,60.22
2022-10-16T08:12:02.239Z,60.26
2022-10-16T08:14:30.949Z,60.25
2022-10-16T08:16:59.491Z,60.32
2022-10-16T08:19:27.804Z,60.29
2022-10-16T08:21:56.192Z,60.42
2022-10-16T08:24:24.599Z,60.42
2022-10-16T08:26:52.703Z,60.48
2022-10-16T08:29:22.475Z,60.05
2022-10-16T08:31:51.019Z,60.31
2022-10-16T08:34:19.240Z,59.78
2022-10-16T08:36:47.742Z,60.01
2022-10-16T08:39:18.108Z,59.79
2022-10-16T08:42:17.472Z,59.65
2022-10-16T08:45:08.995Z,59.59
2022-10-16T08:47:51.440Z,59.60
2022-10-16T08:50:29.018Z,59.45
2022-10-16T08:52:58.759Z,59.48
2022-10-16T08:55:39.829Z,59.56
2022-10-16T08:58:14.617Z,59.46
2022-10-16T09:00:52.269Z,59.14
2022-10-16T09:03:34.562Z,59.38
2022-10-16T09:06:28.413Z,59.49
2022-10-16T09:09:15.992Z,59.40
2022-10-16T09:11:54.124Z,59.42
2022-10-16T09:14:42.784Z,59.55
2022-10-16T09:17:34.119Z,59.42
2022-10-16T09:20:16.247Z,59.21
2022-10-16T09:22:44.529Z,59.21
2022-10-16T09:25:26.404Z,59.15
2022-10-16T09:28:00.078Z,59.06
2022-10-16T09:30:31.762Z,59.34
2022-10-16T09:33:01.757Z,59.50
2022-10-16T09:35:35.474Z,59.54
2022-10-16T09:38:03.867Z,59.34
2022-10-16T09:40:37.217Z,59.45
2022-10-16T09:43:25.708Z,59.35
2022-10-16T09:45:59.274Z,59.88
2022-10-16T09:48:33.908Z,59.96
2022-10-16T09:51:04.274Z,60.07
2022-10-16T09:53:43.334Z,60.19
2022-10-16T09:56:15.326Z,60.66
2022-10-16T09:58:52.001Z,60.23
2022-10-16T10:01:21.428Z,59.94
2022-10-16T10:04:01.872Z,59.98
2022-10-16T10:06:32.907Z,59.91
2022-10-16T10:09:04.669Z,59.96
2022-10-16T10:11:55.706Z,59.84
2022-10-16T10:14:30.412Z,59.91
2022-10-16T10:17:13.737Z,60.06
2022-10-16T10:19:48.894Z,59.82
2022-10-16T10:22:25.888Z,59.88
2022-10-16T10:24:59.510Z,59.76
2022-10-16T10:27:38.003Z,59.70
2022-10-16T10:32:58.303Z,59.72
2022-10-16T10:35:37.536Z,59.66
2022-10-16T10:38:23.341Z,59.68
2022-10-16T10:40:59.250Z,59.37
2022-10-16T10:43:43.520Z,59.75
2022-10-16T10:46:21.302Z,59.63
2022-10-16T10:49:42.465Z,59.46
2022-10-16T10:52:37.421Z,59.22
2022-10-16T10:55:17.881Z,59.37
2022-10-16T10:58:05.715Z,59.30
2022-10-16T11:00:44.950Z,59.16
2022-10-16T11:03:30.214Z,58.96
2022-10-16T11:06:01.104Z,58.79
2022-10-16T11:08:37.331Z,58.71
2022-10-16T11:11:13.096Z,58.03
2022-10-16T11:13:51.485Z,57.69
2022-10-16T11:16:25.584Z,57.75
2022-10-16T11:18:59.321Z,57.41
2022-10-16T11:21:31.335Z,57.08
2022-10-16T11:24:06.809Z,56.97
2022-10-16T11:26:38.274Z,56.40
2022-10-16T11:29:15.361Z,55.95
2022-10-16T11:31:48.738Z,55.26
2022-10-16T11:34:25.133Z,54.93
2022-10-16T11:36:58.955Z,54.09
2022-10-16T11:39:31.600Z,54.04
2022-10-16T11:42:09.835Z,54.34
2022-10-16T11:44:47.522Z,54.37
2022-10-16T11:53:52.886Z,54.31
2022-10-16T11:56:27.909Z,54.61
2022-10-16T11:59:42.591Z,53.63
2022-10-16T12:03:16.437Z,52.89
2022-10-16T12:05:58.810Z,53.50
2022-10-16T12:11:36.039Z,53.47
2022-10-16T12:14:29.889Z,53.20
2022-10-16T12:17:07.110Z,53.34
2022-10-16T12:19:36.987Z,53.20
2022-10-16T12:22:21.551Z,52.71
2022-10-16T12:24:59.343Z,52.55
2022-10-16T12:27:41.859Z,51.98
2022-10-16T12:30:32.350Z,51.62
2022-10-16T12:33:33.640Z,51.37
2022-10-16T12:36:06.224Z,50.97
2022-10-16T12:39:07.793Z,50.17
2022-10-16T13:57:27.265Z,45.53
2022-10-16T14:00:13.846Z,45.77
2022-10-16T14:02:54.583Z,45.96
2022-10-16T14:05:26.240Z,45.24
2022-10-16T14:08:02.643Z,45.20
2022-10-16T14:13:34.832Z,43.06
2022-10-16T14:21:22.879Z,43.27
2022-10-16T14:24:38.178Z,42.25
2022-10-16T14:27:34.902Z,42.26
2022-10-16T14:45:39.739Z,43.51
2022-10-16T14:48:39.955Z,42.81
2022-10-16T14:51:17.032Z,42.57
2022-10-16T14:53:49.014Z,41.37
2022-10-16T14:56:22.036Z,40.56
2022-10-16T14:58:53.015Z,39.52
2022-10-16T15:01:24.367Z,38.71
2022-10-16T15:03:56.896Z,37.16
2022-10-16T15:06:31.957Z,35.94
2022-10-16T15:09:02.410Z,35.53
2022-10-16T15:11:38.729Z,35.97
2022-10-16T15:14:07.769Z,36.38
2022-10-16T15:16:39.056Z,36.97
2022-10-16T15:19:07.703Z,37.27
2022-10-16T15:21:36.241Z,38.07
2022-10-16T15:24:04.641Z,38.76
2022-10-16T15:26:33.450Z,39.18
2022-10-16T15:29:05.805Z,39.92
2022-10-16T15:31:37.526Z,40.19
2022-10-16T15:34:14.419Z,40.84
2022-10-16T15:36:49.569Z,41.69
2022-10-16T15:39:21.316Z,42.26
2022-10-16T15:41:52.464Z,42.31
2022-10-16T15:44:24.105Z,42.06
2022-10-16T15:46:52.823Z,42.04
2022-10-16T15:49:22.632Z,42.31
2022-10-16T15:51:55.371Z,42.09
2022-10-16T15:54:25.872Z,41.79
2022-10-16T15:56:58.501Z,42.10
2022-10-16T16:02:18.743Z,42.42
2022-10-16T16:04:49.441Z,42.80
2022-10-16T16:10:08.575Z,43.29
2022-10-16T16:12:51.890Z,43.32
2022-10-16T16:15:59.294Z,43.99
2022-10-16T16:18:37.974Z,44.09
2022-10-16T16:21:16.454Z,44.47
2022-10-16T16:24:13.918Z,45.16
2022-10-16T16:26:45.110Z,44.99
2022-10-16T16:29:39.588Z,45.52
2022-10-16T16:32:09.601Z,45.50
2022-10-16T16:34:38.277Z,45.72
2022-10-16T16:37:13.281Z,46.00
2022-10-16T16:39:50.722Z,46.22
2022-10-16T16:42:19.194Z,46.60
2022-10-16T16:44:58.294Z,46.51
2022-10-16T16:47:52.524Z,46.56
2022-10-16T16:50:26.445Z,47.09
2022-10-16T16:53:05.910Z,47.03
2022-10-16T16:55:50.784Z,47.29
2022-10-16T16:58:42.276Z,47.41
2022-10-16T17:01:19.917Z,48.00
2022-10-16T17:03:51.766Z,48.03
2022-10-16T17:10:10.038Z,48.42
2022-10-16T17:12:39.255Z,48.79
2022-10-16T17:15:08.754Z,49.08
2022-10-16T17:17:37.514Z,49.44
2022-10-16T17:20:22.165Z,49.70
2022-10-16T17:25:52.878Z,49.91
2022-10-16T17:28:35.233Z,50.08
2022-10-16T17:31:14.886Z,50.08
2022-10-16T17:33:43.815Z,50.31
2022-10-16T17:39:06.226Z,50.79
2022-10-16T17:41:39.013Z,50.68
2022-10-16T17:44:08.353Z,51.15
2022-10-16T17:46:41.382Z,51.18
2022-10-16T17:49:28.545Z,51.36
2022-10-16T17:52:03.166Z,51.39
2022-10-16T17:54:45.394Z,51.61
2022-10-16T17:57:18.167Z,51.75
2022-10-16T17:59:48.957Z,52.03
2022-10-16T18:02:37.204Z,52.34
2022-10-16T18:05:06.962Z,52.46
2022-10-16T18:10:11.844Z,52.77
2022-10-16T18:12:46.071Z,52.89
2022-10-16T18:15:16.502Z,53.05
2022-10-16T18:17:45.712Z,52.74
2022-10-16T18:20:14.735Z,53.22
2022-10-16T18:22:47.642Z,53.20
2022-10-16T18:25:16.790Z,53.20
2022-10-16T18:27:47.424Z,53.39
2022-10-16T18:30:16.129Z,53.60
2022-10-16T18:32:46.122Z,53.67
2022-10-16T18:35:28.251Z,53.72
2022-10-16T18:38:00.923Z,53.99
2022-10-16T18:40:30.507Z,53.90
2022-10-16T18:59:17.719Z,54.53
2022-10-16T19:01:52.190Z,54.34
2022-10-16T19:04:24.523Z,54.51
2022-10-16T19:06:56.491Z,54.35
2022-10-16T19:09:26.637Z,54.60
2022-10-16T19:11:57.061Z,54.56
2022-10-16T19:14:34.237Z,54.36
2022-10-16T19:17:02.896Z,54.26
2022-10-16T19:19:31.163Z,54.69
2022-10-16T19:25:02.619Z,54.89
2022-10-16T19:41:32.694Z,55.58
2022-10-16T19:47:11.191Z,55.58
